Time;durP1;ratioP1;P1;durP2;ratioP2;P2;SDS_P1;SDS_P2;PMS_P1;PMS_P2;Temp;Humidity;BMP_temperature;BMP_pressure;BME280_temperature;BME280_humidity;BME280_pressure;Samples;Min_cycle;Max_cycle;Signal;HPM_P1;HPM_P2
2022/12/23 00:01:00;;;;;;;59.17;38.07;;;;;;;4.07;100.00;101414.34;2105633;28;20731;-64
2022/12/23 00:02:00;;;;;;;65.13;39.70;;;;;;;4.05;100.00;101416.66;2111930;28;20201;-64
2022/12/23 00:03:01;;;;;;;60.97;39.40;;;;;;;4.03;100.00;101411.53;2108260;28;20198;-64
2022/12/23 00:04:02;;;;;;;59.10;38.73;;;;;;;4.03;100.00;101408.00;2105108;28;20547;-64
2022/12/23 00:05:03;;;;;;;63.40;39.17;;;;;;;4.02;100.00;101407.22;2105028;28;20241;-64
2022/12/23 00:06:12;;;;;;;64.25;40.03;;;;;;;3.89;100.00;101394.06;2105706;28;20661;-64
2022/12/23 00:07:13;;;;;;;59.80;38.00;;;;;;;4.00;100.00;101404.03;2105768;28;20200;-64
2022/12/23 00:08:13;;;;;;;59.10;38.40;;;;;;;4.04;100.00;101415.88;2106806;28;20174;-64
2022/12/23 00:09:14;;;;;;;60.50;37.77;;;;;;;4.05;100.00;101406.47;2113503;28;20203;-64
2022/12/23 00:10:14;;;;;;;57.33;36.17;;;;;;;3.66;100.00;101344.78;2106439;28;20177;-64
2022/12/23 00:11:17;;;;;;;61.63;39.13;;;;;;;4.07;100.00;101406.09;2112944;28;20536;-64
2022/12/23 00:15:04;;;;;;;58.60;37.22;;;;;;;3.91;100.00;101405.47;2105969;28;20683;-64
2022/12/23 00:16:07;;;;;;;59.63;38.20;;;;;;;3.85;100.00;101404.97;2106367;28;20556;-64
2022/12/23 00:17:09;;;;;;;61.38;37.85;;;;;;;3.80;100.00;101399.03;2106381;28;20187;-64
2022/12/23 00:18:10;;;;;;;59.35;37.97;;;;;;;3.79;100.00;101403.72;2105745;28;20191;-64
2022/12/23 00:19:10;;;;;;;62.53;38.57;;;;;;;3.85;100.00;101401.47;2106882;28;20273;-64
2022/12/23 00:20:13;;;;;;;65.23;39.43;;;;;;;3.53;100.00;101345.31;2109021;27;20633;-64
2022/12/23 00:21:16;;;;;;;65.70;40.17;;;;;;;3.83;100.00;101401.03;2105563;28;20218;-64
2022/12/23 00:22:16;;;;;;;62.83;40.25;;;;;;;3.83;100.00;101401.03;2105703;28;20260;-64
2022/12/23 00:23:16;;;;;;;62.53;39.43;;;;;;;3.81;100.00;101400.63;2105461;28;20189;-64
2022/12/23 00:24:17;;;;;;;62.87;38.83;;;;;;;3.80;100.00;101408.03;2105130;28;20180;-64
2022/12/23 00:25:17;;;;;;;65.87;40.47;;;;;;;3.76;100.00;101404.47;2105621;28;20240;-64
2022/12/23 00:26:23;;;;;;;64.83;39.57;;;;;;;3.81;100.00;101398.66;2105790;28;20272;-64
2022/12/23 00:27:24;;;;;;;63.67;39.05;;;;;;;3.83;100.00;101403.75;2105742;28;20654;-64
2022/12/23 00:28:26;;;;;;;65.18;40.60;;;;;;;3.77;100.00;101399.75;2105401;28;20191;-64
2022/12/23 00:29:26;;;;;;;62.22;40.65;;;;;;;3.72;100.00;101391.84;2104925;28;20779;-64
2022/12/23 00:30:27;;;;;;;64.43;40.80;;;;;;;3.70;100.00;101410.63;2105574;28;20649;-64
2022/12/23 00:31:28;;;;;;;63.87;40.00;;;;;;;3.66;100.00;101402.34;2105421;28;20192;-64
2022/12/23 00:32:28;;;;;;;64.93;40.30;;;;;;;3.61;100.00;101399.09;2105066;28;20189;-64
2022/12/23 00:33:32;;;;;;;65.37;39.83;;;;;;;3.72;100.00;101400.06;2105408;28;20211;-64
2022/12/23 00:34:32;;;;;;;64.22;38.80;;;;;;;3.54;100.00;101371.59;2105084;28;20180;-64
2022/12/23 00:35:33;;;;;;;65.77;40.37;;;;;;;3.71;100.00;101401.22;2104724;28;20646;-64
2022/12/23 00:36:33;;;;;;;64.97;40.20;;;;;;;3.70;100.00;101397.69;2113221;28;20193;-64
2022/12/23 00:37:34;;;;;;;64.67;40.43;;;;;;;3.57;100.00;101379.88;2105557;28;20220;-64
2022/12/23 00:42:52;;;;;;;65.18;39.60;;;;;;;3.59;100.00;101393.22;2106429;28;20567;-64
2022/12/23 00:43:53;;;;;;;66.38;38.85;;;;;;;3.18;100.00;101328.34;2110093;28;20667;-64
2022/12/23 00:45:14;;;;;;;63.77;38.63;;;;;;;3.58;100.00;101395.16;2105579;28;20529;-64
2022/12/23 00:46:13;;;;;;;68.45;40.55;;;;;;;3.55;100.00;101392.34;2105074;28;20475;-64
2022/12/23 00:49:40;;;;;;;69.03;41.63;;;;;;;3.54;100.00;101397.03;2105260;28;20660;-64
2022/12/23 00:50:01;;;;;;;67.90;38.90;;;;;;;3.45;100.00;101382.78;2111638;28;20205;-64
2022/12/23 00:51:01;;;;;;;72.80;42.37;;;;;;;3.42;100.00;101382.72;2105399;28;20204;-64
2022/12/23 00:52:04;;;;;;;67.00;42.00;;;;;;;3.42;100.00;101385.47;2105356;28;20182;-64
2022/12/23 00:53:05;;;;;;;65.78;40.40;;;;;;;3.38;100.00;101396.38;2105134;28;20233;-64
2022/12/23 00:54:06;;;;;;;63.92;39.15;;;;;;;3.35;100.00;101399.06;2105101;28;20395;-64
2022/12/23 00:55:07;;;;;;;61.90;38.07;;;;;;;3.29;100.00;101387.59;2109081;28;20282;-64
2022/12/23 00:56:07;;;;;;;63.70;38.93;;;;;;;3.24;100.00;101393.38;2106640;28;20547;-64
2022/12/23 00:57:07;;;;;;;60.80;38.50;;;;;;;3.28;100.00;101390.72;2105221;28;20638;-64
2022/12/23 00:58:08;;;;;;;62.10;38.23;;;;;;;3.26;100.00;101382.88;2105406;28;20242;-64
2022/12/23 00:59:08;;;;;;;60.33;38.83;;;;;;;3.28;100.00;101390.72;2105023;28;20676;-64
2022/12/23 01:00:09;;;;;;;62.57;38.30;;;;;;;3.30;100.00;101382.91;2105302;28;20169;-65
2022/12/23 01:06:28;;;;;;;60.55;37.78;;;;;;;3.27;100.00;101389.91;2105557;28;20688;-64
2022/12/23 01:07:29;;;;;;;57.87;36.47;;;;;;;3.25;100.00;101388.69;2105170;28;20575;-64
2022/12/23 01:08:29;;;;;;;56.20;35.43;;;;;;;3.24;100.00;101382.41;2109182;28;20285;-64
2022/12/23 01:09:30;;;;;;;56.63;35.10;;;;;;;3.24;100.00;101376.94;2110058;28;20636;-64
2022/12/23 01:10:30;;;;;;;54.57;36.07;;;;;;;3.26;100.00;101382.06;2107411;28;20255;-64
2022/12/23 01:11:31;;;;;;;56.20;35.57;;;;;;;3.27;100.00;101373.47;2112431;28;20554;-64
2022/12/23 01:12:31;;;;;;;58.23;37.97;;;;;;;3.28;100.00;101377.03;2106253;28;20263;-64
2022/12/23 01:13:32;;;;;;;53.17;35.03;;;;;;;3.27;100.00;101378.16;2105274;28;20216;-64
2022/12/23 01:14:33;;;;;;;54.40;35.17;;;;;;;3.29;100.00;101378.59;2104606;28;20199;-64
2022/12/23 01:15:33;;;;;;;55.67;35.37;;;;;;;3.29;100.00;101376.63;2104639;28;20531;-64
2022/12/23 01:16:38;;;;;;;48.60;33.20;;;;;;;3.31;100.00;101373.53;2105111;28;20195;-64
2022/12/23 01:17:38;;;;;;;49.75;33.20;;;;;;;3.33;100.00;101377.50;2105123;28;20667;-64
2022/12/23 01:18:40;;;;;;;51.03;32.17;;;;;;;3.41;100.00;101381.16;2105186;28;20639;-65
2022/12/23 01:19:40;;;;;;;47.42;30.05;;;;;;;3.47;100.00;101377.75;2104826;28;20548;-65
2022/12/23 01:20:41;;;;;;;44.17;29.63;;;;;;;3.53;100.00;101370.00;2105091;28;20225;-64
2022/12/23 01:21:41;;;;;;;43.17;28.33;;;;;;;3.58;100.00;101381.44;2105865;28;20532;-64
2022/12/23 01:22:42;;;;;;;43.23;28.90;;;;;;;3.57;100.00;101370.84;2105209;28;20314;-64
2022/12/23 01:23:42;;;;;;;46.43;29.43;;;;;;;2.80;100.00;101265.47;2105192;28;20191;-64
2022/12/23 01:24:43;;;;;;;42.47;26.73;;;;;;;3.58;100.00;101381.44;2104512;28;20230;-64
2022/12/23 01:25:43;;;;;;;41.30;26.50;;;;;;;3.61;100.00;101379.91;2108468;28;20222;-64
2022/12/23 01:26:44;;;;;;;41.00;26.83;;;;;;;3.62;100.00;101379.56;2110519;28;20291;-64
2022/12/23 01:27:44;;;;;;;39.93;26.10;;;;;;;3.66;100.00;101374.13;2106998;28;20177;-64
2022/12/23 01:28:45;;;;;;;39.37;26.30;;;;;;;3.70;100.00;101375.75;2112323;28;20639;-64
2022/12/23 01:29:46;;;;;;;42.45;27.88;;;;;;;3.68;100.00;101369.88;2105350;28;20254;-64
2022/12/23 01:30:46;;;;;;;43.97;28.07;;;;;;;3.70;100.00;101378.50;2105408;28;20199;-65
2022/12/23 01:31:46;;;;;;;43.13;27.63;;;;;;;3.63;100.00;101377.59;2104997;28;20202;-64
2022/12/23 01:32:47;;;;;;;41.60;27.93;;;;;;;3.61;100.00;101374.44;2105068;28;20650;-64
2022/12/23 01:33:48;;;;;;;45.40;29.10;;;;;;;3.41;100.00;101349.06;2105135;28;20193;-64
2022/12/23 01:34:48;;;;;;;42.30;27.53;;;;;;;3.58;100.00;101380.66;2104607;28;20335;-64
2022/12/23 01:35:48;;;;;;;42.20;27.60;;;;;;;3.60;100.00;101373.63;2104235;28;20166;-64
2022/12/23 01:36:49;;;;;;;38.93;25.77;;;;;;;3.64;100.00;101369.00;2104864;28;20249;-64
2022/12/23 01:37:49;;;;;;;42.50;28.10;;;;;;;3.71;100.00;101369.16;2105734;28;20563;-64
2022/12/23 01:38:50;;;;;;;42.07;26.63;;;;;;;3.73;100.00;101361.31;2105254;28;20793;-64
2022/12/23 01:39:50;;;;;;;39.73;26.20;;;;;;;3.77;100.00;101366.84;2104609;28;20607;-64
2022/12/23 01:40:51;;;;;;;39.67;25.97;;;;;;;3.77;100.00;101366.84;2105169;28;20200;-64
2022/12/23 01:44:22;;;;;;;39.10;24.90;;;;;;;3.72;100.00;101364.44;2111906;28;20203;-64
2022/12/23 01:45:31;;;;;;;39.35;24.05;;;;;;;3.70;100.00;101383.22;2089637;28;20228;-64
2022/12/23 01:46:31;;;;;;;35.63;22.90;;;;;;;3.25;100.00;101295.56;2087211;28;20276;-64
2022/12/23 01:48:11;;;;;;;37.93;24.27;;;;;;;3.66;100.00;101380.41;2087215;28;20215;-64
2022/12/23 01:49:11;;;;;;;36.55;22.92;;;;;;;3.31;100.00;101325.03;2094771;28;20666;-64
2022/12/23 01:50:15;;;;;;;38.43;23.90;;;;;;;3.65;100.00;101376.06;2094512;28;20242;-64
2022/12/23 01:51:27;;;;;;;41.25;24.90;;;;;;;3.66;100.00;101371.38;2107204;28;20247;-64
2022/12/23 01:52:28;;;;;;;40.80;24.75;;;;;;;3.29;100.00;101310.91;2105208;28;20203;-64
2022/12/23 01:53:32;;;;;;;44.90;26.25;;;;;;;3.65;100.00;101376.06;2104990;28;20244;-64
2022/12/23 01:54:33;;;;;;;41.03;24.92;;;;;;;3.65;100.00;101372.56;2104941;28;20188;-64
2022/12/23 01:55:44;;;;;;;40.50;24.55;;;;;;;3.63;100.00;101363.88;2109113;28;20195;-64
2022/12/23 01:56:45;;;;;;;42.75;26.23;;;;;;;3.68;100.00;101358.91;2104728;28;20208;-64
2022/12/23 01:57:47;;;;;;;42.90;26.53;;;;;;;3.27;100.00;101302.25;2104709;28;20173;-64
2022/12/23 01:58:52;;;;;;;43.47;26.30;;;;;;;3.71;100.00;101366.41;2104978;28;20173;-64
2022/12/23 02:03:58;;;;;;;46.75;27.00;;;;;;;3.63;100.00;101361.94;2104612;28;20203;-64
2022/12/23 02:04:59;;;;;;;49.30;27.88;;;;;;;3.65;100.00;101359.63;2104178;28;20279;-64
2022/12/23 02:09:15;;;;;;;47.08;26.77;;;;;;;3.66;100.00;101360.44;2108770;28;20316;-64
2022/12/23 02:09:25;;;;;;;49.33;28.13;;;;;;;3.68;100.00;101353.41;2104790;28;20269;-64
2022/12/23 02:10:02;;;;;;;53.30;30.23;;;;;;;3.32;100.00;101279.25;2104926;28;20675;-64
2022/12/23 02:11:11;;;;;;;54.05;30.73;;;;;;;3.75;100.00;101339.81;2104814;28;20260;-64
2022/12/23 02:12:36;;;;;;;56.65;31.92;;;;;;;3.79;100.00;101337.91;2104964;28;20558;-64
2022/12/23 02:17:31;;;;;;;61.70;31.33;;;;;;;2.93;100.00;101234.78;2104479;28;20167;-64
2022/12/23 02:18:45;;;;;;;63.40;32.55;;;;;;;3.66;100.00;101347.53;2104802;28;20188;-64
2022/12/23 02:20:14;;;;;;;71.72;36.15;;;;;;;3.08;100.00;101253.03;2107190;28;20556;-64
2022/12/23 02:21:45;;;;;;;77.50;38.67;;;;;;;3.66;100.00;101347.53;2104869;28;20627;-64
2022/12/23 02:23:05;;;;;;;88.88;41.33;;;;;;;3.61;100.00;101349.78;2105561;28;20166;-64
2022/12/23 02:24:27;;;;;;;87.15;41.90;;;;;;;3.56;100.00;101361.84;2104264;28;20334;-64
2022/12/23 02:25:52;;;;;;;96.72;43.70;;;;;;;3.55;100.00;101349.28;2104194;28;20212;-64
2022/12/23 02:26:58;;;;;;;93.43;44.40;;;;;;;3.56;100.00;101356.38;2110278;28;20661;-64
2022/12/23 02:28:07;;;;;;;97.07;45.17;;;;;;;3.58;100.00;101343.06;2108228;28;20203;-64
2022/12/23 02:29:14;;;;;;;96.05;45.15;;;;;;;3.58;100.00;101342.28;2104608;28;20205;-64
2022/12/23 02:30:25;;;;;;;100.28;46.85;;;;;;;3.58;100.00;101337.59;2106360;28;20240;-64
2022/12/23 02:31:41;;;;;;;100.25;47.45;;;;;;;3.61;100.00;101345.09;2112809;28;20265;-64
2022/12/23 02:32:59;;;;;;;113.57;51.97;;;;;;;3.59;100.00;101346.63;2107171;28;20233;-64
2022/12/23 02:34:28;;;;;;;111.25;50.13;;;;;;;3.60;100.00;101342.72;2104328;28;20316;-64
2022/12/23 02:35:57;;;;;;;110.75;48.88;;;;;;;3.52;100.00;101346.50;2103983;28;20171;-64
2022/12/23 02:37:16;;;;;;;109.05;49.00;;;;;;;3.50;100.00;101340.59;2104620;28;20221;-64
2022/12/23 02:38:25;;;;;;;106.03;48.65;;;;;;;2.96;100.00;101277.06;2104899;28;20705;-64
2022/12/23 02:39:46;;;;;;;102.85;48.13;;;;;;;3.56;100.00;101350.88;2104551;28;20665;-64
2022/12/23 02:41:05;;;;;;;100.88;46.38;;;;;;;3.50;100.00;101359.78;2104581;28;20278;-64
2022/12/23 02:42:14;;;;;;;95.78;45.95;;;;;;;3.50;100.00;101360.56;2104854;28;20699;-64
2022/12/23 02:43:22;;;;;;;99.85;47.38;;;;;;;2.66;100.00;101226.88;2105552;28;20196;-64
2022/12/23 02:45:01;;;;;;;104.43;46.53;;;;;;;3.42;100.00;101356.13;2112551;28;20709;-64
2022/12/23 02:46:12;;;;;;;99.88;46.40;;;;;;;3.45;100.00;101357.34;2088420;28;20658;-64
2022/12/23 02:47:21;;;;;;;100.32;45.95;;;;;;;3.45;100.00;101360.09;2094938;28;20253;-64
2022/12/23 02:48:30;;;;;;;94.35;46.80;;;;;;;3.48;100.00;101359.34;2099558;28;20196;-64
2022/12/23 02:49:39;;;;;;;94.38;43.65;;;;;;;3.31;100.00;101333.25;2104439;28;20159;-64
2022/12/23 02:50:42;;;;;;;95.63;45.35;;;;;;;2.74;100.00;101237.63;2104710;28;20646;-64
2022/12/23 02:51:49;;;;;;;85.57;43.22;;;;;;;3.53;100.00;101361.78;2103891;28;20175;-64
2022/12/23 02:52:52;;;;;;;87.45;44.20;;;;;;;3.40;100.00;101347.50;2104692;28;20169;-64
2022/12/23 02:53:56;;;;;;;87.68;43.13;;;;;;;3.56;100.00;101350.88;2112382;28;20638;-64
2022/12/23 02:55:03;;;;;;;82.10;41.67;;;;;;;3.56;100.00;101356.38;2108803;28;20200;-64
2022/12/23 02:56:05;;;;;;;81.05;40.53;;;;;;;3.48;100.00;101346.44;2105554;28;20538;-64
2022/12/23 02:57:07;;;;;;;80.60;40.75;;;;;;;3.56;100.00;101353.63;2104579;28;20535;-64
2022/12/23 02:58:12;;;;;;;77.03;40.25;;;;;;;3.59;100.00;101354.84;2104799;28;20197;-64
2022/12/23 02:59:38;;;;;;;81.70;40.97;;;;;;;3.61;100.00;101350.56;2104538;28;20749;-64
2022/12/23 03:00:41;;;;;;;79.82;39.95;;;;;;;3.63;100.00;101356.47;2105028;28;20285;-64
2022/12/23 03:01:43;;;;;;;81.13;40.88;;;;;;;3.65;100.00;101356.88;2104628;28;20195;-64
2022/12/23 03:02:44;;;;;;;83.22;42.15;;;;;;;3.63;100.00;101353.72;2104766;28;20195;-64
2022/12/23 03:03:46;;;;;;;80.97;41.53;;;;;;;3.25;100.00;101293.63;2104674;28;20204;-64
2022/12/23 03:04:46;;;;;;;84.82;41.72;;;;;;;3.59;100.00;101360.31;2104151;28;20214;-64
2022/12/23 03:05:49;;;;;;;84.67;42.13;;;;;;;3.52;100.00;101354.72;2103899;28;20328;-64
2022/12/23 03:06:52;;;;;;;82.60;41.30;;;;;;;3.57;100.00;101365.38;2104701;28;20174;-64
2022/12/23 03:07:58;;;;;;;81.13;40.70;;;;;;;3.57;100.00;101366.16;2106146;28;20188;-64
2022/12/23 03:08:59;;;;;;;81.20;41.42;;;;;;;3.57;100.00;101360.69;2111541;28;20247;-64
2022/12/23 03:10:24;;;;;;;79.57;40.15;;;;;;;3.63;100.00;101356.47;2105190;28;20188;-64
2022/12/23 03:11:38;;;;;;;79.60;38.38;;;;;;;2.81;100.00;101231.44;2104538;28;20192;-64
2022/12/23 03:12:58;;;;;;;80.50;40.25;;;;;;;3.63;100.00;101366.63;2107513;28;20673;-64
2022/12/23 03:14:14;;;;;;;78.88;38.92;;;;;;;3.61;100.00;101371.69;2108116;28;20611;-64
2022/12/23 03:15:17;;;;;;;80.65;39.90;;;;;;;3.60;100.00;101370.91;2104061;28;20224;-64
2022/12/23 03:17:00;;;;;;;84.13;40.78;;;;;;;3.62;100.00;101374.09;2104606;28;20235;-64
2022/12/23 03:18:03;;;;;;;73.68;37.33;;;;;;;3.13;100.00;101298.50;2102915;28;20219;-64
2022/12/23 03:19:14;;;;;;;88.53;39.45;;;;;;;3.57;100.00;101368.09;2106441;28;20280;-64
2022/12/23 03:20:27;;;;;;;82.25;38.28;;;;;;;3.59;100.00;101357.59;2106918;28;20181;-64
2022/12/23 03:21:42;;;;;;;78.13;38.13;;;;;;;3.61;100.00;101363.47;2106853;28;20188;-64
2022/12/23 03:22:50;;;;;;;72.28;38.10;;;;;;;3.61;100.00;101363.47;2105873;28;20168;-64
2022/12/23 03:24:03;;;;;;;72.82;38.22;;;;;;;3.58;100.00;101365.00;2113278;27;20626;-64
2022/12/23 03:25:16;;;;;;;77.55;39.08;;;;;;;3.60;100.00;101365.41;2105500;28;20541;-64
2022/12/23 03:26:31;;;;;;;67.93;36.00;;;;;;;3.42;100.00;101347.09;2105820;28;20179;-64
2022/12/23 03:27:43;;;;;;;71.85;36.80;;;;;;;3.57;100.00;101371.66;2107591;28;20255;-64
2022/12/23 03:29:10;;;;;;;67.13;36.65;;;;;;;3.53;100.00;101357.09;2112115;28;20354;-64
2022/12/23 03:30:14;;;;;;;71.40;37.35;;;;;;;3.58;100.00;101362.25;2105999;28;20245;-64
2022/12/23 03:31:21;;;;;;;66.35;36.13;;;;;;;3.63;100.00;101353.72;2105950;28;20669;-64
2022/12/23 03:32:24;;;;;;;64.55;36.17;;;;;;;3.67;100.00;101348.31;2106180;28;20224;-64
2022/12/23 03:33:38;;;;;;;67.05;35.67;;;;;;;3.70;100.00;101351.09;2105511;28;20274;-64
2022/12/23 03:34:42;;;;;;;62.88;34.03;;;;;;;3.70;100.00;101362.06;2105326;28;20198;-64
2022/12/23 03:35:49;;;;;;;67.85;37.20;;;;;;;3.42;100.00;101320.50;2105359;28;20619;-64
2022/12/23 03:36:56;;;;;;;71.40;37.75;;;;;;;3.56;100.00;101356.38;2105755;28;20296;-64
2022/12/23 03:38:00;;;;;;;76.88;39.00;;;;;;;3.56;100.00;101359.13;2105980;28;20191;-64
2022/12/23 03:39:04;;;;;;;68.55;37.25;;;;;;;3.57;100.00;101370.84;2105774;28;20667;-64
2022/12/23 03:40:10;;;;;;;67.65;36.45;;;;;;;3.16;100.00;101290.34;2105995;28;20185;-64
2022/12/23 03:41:20;;;;;;;68.93;36.50;;;;;;;3.62;100.00;101343.94;2105760;28;20630;-64
2022/12/23 03:42:29;;;;;;;70.85;38.58;;;;;;;3.62;100.00;101351.34;2106908;28;20156;-64
2022/12/23 03:43:33;;;;;;;66.85;35.42;;;;;;;3.63;100.00;101342.78;2113484;28;20174;-64
2022/12/23 03:44:38;;;;;;;67.57;36.20;;;;;;;3.16;100.00;101267.63;2105176;28;20177;-64
2022/12/23 03:45:47;;;;;;;68.43;36.58;;;;;;;3.61;100.00;101350.56;2106134;28;20231;-64
2022/12/23 03:46:54;;;;;;;70.05;36.83;;;;;;;3.51;100.00;101336.69;2106786;28;20173;-64
2022/12/23 03:48:03;;;;;;;72.70;36.92;;;;;;;2.98;100.00;101247.41;2106700;28;20188;-64
2022/12/23 03:49:18;;;;;;;67.82;36.65;;;;;;;3.55;100.00;101340.28;2106441;28;20221;-64
2022/12/23 03:50:21;;;;;;;70.85;36.40;;;;;;;3.55;100.00;101349.28;2106681;28;20167;-64
2022/12/23 03:51:29;;;;;;;75.72;37.42;;;;;;;3.26;100.00;101287.00;2106495;28;20187;-64
2022/12/23 03:52:35;;;;;;;75.22;37.72;;;;;;;3.60;100.00;101353.69;2106698;28;20169;-64
2022/12/23 03:53:44;;;;;;;72.95;37.00;;;;;;;3.60;100.00;101342.72;2105858;28;20273;-64
2022/12/23 03:54:53;;;;;;;73.57;38.72;;;;;;;3.67;100.00;101353.78;2113524;28;20237;-64
2022/12/23 03:56:02;;;;;;;69.72;38.10;;;;;;;3.60;100.00;101332.53;2105879;28;20658;-64
2022/12/23 03:57:06;;;;;;;80.18;39.25;;;;;;;3.50;100.00;101313.97;2105672;28;20204;-64
2022/12/23 03:58:10;;;;;;;74.13;37.72;;;;;;;3.71;100.00;101341.72;2105963;28;20193;-64
2022/12/23 03:59:18;;;;;;;74.10;38.40;;;;;;;3.70;100.00;101342.88;2105662;28;20240;-64
2022/12/23 04:00:19;;;;;;;74.72;38.50;;;;;;;3.66;100.00;101342.03;2111939;28;20203;-64
2022/12/23 04:01:28;;;;;;;80.47;40.27;;;;;;;3.69;100.00;101340.50;2114208;28;20196;-64
2022/12/23 04:02:45;;;;;;;79.32;41.03;;;;;;;3.65;100.00;101339.66;2108970;28;20203;-64
2022/12/23 04:04:00;;;;;;;75.88;39.10;;;;;;;3.62;100.00;101338.44;2105837;28;20198;-64
2022/12/23 04:05:16;;;;;;;81.32;40.08;;;;;;;3.59;100.00;101341.16;2104968;28;20236;-64
2022/12/23 04:06:19;;;;;;;76.43;36.88;;;;;;;3.61;100.00;101339.63;2105352;28;20191;-64
2022/12/23 04:07:29;;;;;;;72.93;37.72;;;;;;;3.62;100.00;101343.94;2105509;28;20201;-64
2022/12/23 04:08:35;;;;;;;72.60;38.13;;;;;;;3.40;100.00;101311.06;2105855;28;20204;-64
2022/12/23 04:09:37;;;;;;;75.50;38.35;;;;;;;3.57;100.00;101344.25;2106667;28;20206;-64
2022/12/23 04:10:38;;;;;;;76.00;38.60;;;;;;;3.55;100.00;101343.81;2105907;28;20202;-64
2022/12/23 04:11:39;;;;;;;80.87;39.27;;;;;;;3.52;100.00;101351.97;2105881;28;20230;-64
2022/12/23 04:12:39;;;;;;;78.10;38.27;;;;;;;3.02;100.00;101276.41;2105607;28;20219;-64
2022/12/23 04:13:40;;;;;;;76.40;40.87;;;;;;;3.50;100.00;101348.81;2105674;28;20228;-64
2022/12/23 04:14:48;;;;;;;75.80;37.80;;;;;;;3.47;100.00;101344.88;2104643;28;20195;-64
2022/12/23 04:15:48;;;;;;;80.45;38.55;;;;;;;3.48;100.00;101351.91;2104793;28;20660;-64
2022/12/23 04:16:55;;;;;;;75.73;38.77;;;;;;;3.46;100.00;101347.97;2106367;28;20250;-64
2022/12/23 04:17:56;;;;;;;74.00;37.90;;;;;;;3.41;100.00;101351.00;2106280;28;20169;-64
2022/12/23 04:18:57;;;;;;;76.22;39.20;;;;;;;2.73;100.00;101257.91;2105898;28;20291;-64
2022/12/23 04:19:57;;;;;;;78.60;40.47;;;;;;;3.25;100.00;101317.47;2106348;28;20662;-64
2022/12/23 04:20:58;;;;;;;84.37;38.00;;;;;;;2.79;100.00;101253.72;2111539;28;20264;-64
2022/12/23 04:21:58;;;;;;;83.63;38.47;;;;;;;3.39;100.00;101348.63;2109503;28;20329;-64
2022/12/23 04:22:58;;;;;;;76.73;39.23;;;;;;;3.40;100.00;101346.69;2105667;28;20288;-64
2022/12/23 04:23:59;;;;;;;74.03;38.07;;;;;;;3.34;100.00;101331.72;2104868;28;20183;-64
2022/12/23 04:24:59;;;;;;;77.70;38.27;;;;;;;3.43;100.00;101337.72;2105106;28;20199;-64
2022/12/23 04:26:00;;;;;;;75.13;39.13;;;;;;;3.33;100.00;101324.69;2106469;28;20653;-64
2022/12/23 04:27:00;;;;;;;75.20;38.50;;;;;;;3.42;100.00;101330.66;2113415;28;20222;-64
2022/12/23 04:28:01;;;;;;;73.73;38.53;;;;;;;3.44;100.00;101334.63;2107394;28;20209;-64
2022/12/23 04:29:01;;;;;;;75.60;39.17;;;;;;;3.40;100.00;101328.31;2105367;28;20210;-64
2022/12/23 04:30:03;;;;;;;71.77;37.27;;;;;;;3.34;100.00;101316.06;2105415;28;20236;-64
2022/12/23 04:31:03;;;;;;;77.95;38.67;;;;;;;3.36;100.00;101330.22;2105614;28;20749;-64
2022/12/23 04:32:04;;;;;;;80.73;38.03;;;;;;;3.32;100.00;101328.53;2105550;28;20180;-64
2022/12/23 04:33:04;;;;;;;71.90;37.73;;;;;;;3.27;100.00;101323.38;2105257;28;20173;-64
2022/12/23 04:34:05;;;;;;;69.90;36.03;;;;;;;3.22;100.00;101335.44;2105720;28;20196;-64
2022/12/23 04:35:06;;;;;;;74.03;37.63;;;;;;;3.27;100.00;101332.41;2104418;28;20218;-64
2022/12/23 04:36:07;;;;;;;73.30;38.08;;;;;;;3.24;100.00;101335.84;2105493;28;20192;-64
2022/12/23 04:37:07;;;;;;;72.67;36.63;;;;;;;2.65;100.00;101236.25;2104809;28;20250;-64
2022/12/23 04:38:07;;;;;;;73.80;36.40;;;;;;;3.21;100.00;101324.84;2104866;28;20672;-64
2022/12/23 04:39:08;;;;;;;70.40;37.90;;;;;;;3.18;100.00;101333.81;2105223;28;20206;-64
2022/12/23 04:40:09;;;;;;;69.90;36.90;;;;;;;3.18;100.00;101331.06;2105465;28;20570;-64
2022/12/23 04:41:09;;;;;;;79.23;38.60;;;;;;;3.14;100.00;101335.69;2105236;28;20182;-64
2022/12/23 04:42:10;;;;;;;74.47;37.97;;;;;;;3.12;100.00;101336.06;2106392;28;20563;-64
2022/12/23 04:43:10;;;;;;;71.17;37.73;;;;;;;3.11;100.00;101339.16;2105927;28;20205;-64
2022/12/23 04:44:10;;;;;;;80.07;40.00;;;;;;;3.10;100.00;101332.09;2113353;28;20741;-64
2022/12/23 04:45:11;;;;;;;77.23;38.13;;;;;;;3.06;100.00;101332.03;2107250;28;21077;-64
2022/12/23 04:46:11;;;;;;;72.60;37.70;;;;;;;3.05;100.00;101337.88;2105212;28;20226;-64
2022/12/23 04:47:12;;;;;;;83.20;38.83;;;;;;;3.00;100.00;101341.72;2105287;28;20665;-64
2022/12/23 04:48:12;;;;;;;76.40;36.63;;;;;;;2.99;100.00;101342.06;2105299;28;20202;-64
2022/12/23 04:49:12;;;;;;;79.03;38.10;;;;;;;3.01;100.00;101342.47;2105208;28;20203;-64
2022/12/23 04:50:14;;;;;;;80.73;38.40;;;;;;;2.96;100.00;101343.59;2106267;28;20300;-64
2022/12/23 04:51:15;;;;;;;75.25;37.13;;;;;;;2.95;100.00;101335.72;2105881;28;20202;-64
2022/12/23 04:52:15;;;;;;;82.03;38.07;;;;;;;2.93;100.00;101341.56;2105404;28;20208;-64
2022/12/23 04:53:16;;;;;;;82.53;37.73;;;;;;;2.92;100.00;101342.72;2105399;28;20205;-64
2022/12/23 04:54:16;;;;;;;81.37;38.60;;;;;;;2.93;100.00;101340.78;2104939;28;20200;-64
2022/12/23 04:55:17;;;;;;;81.43;38.57;;;;;;;2.90;100.00;101342.31;2107881;28;20616;-64
2022/12/23 04:56:17;;;;;;;78.37;37.73;;;;;;;2.90;100.00;101338.75;2105720;28;20263;-64
2022/12/23 04:57:17;;;;;;;74.83;37.63;;;;;;;2.91;100.00;101337.59;2105147;28;20236;-64
2022/12/23 04:58:20;;;;;;;75.27;36.80;;;;;;;2.86;100.00;101338.72;2105655;28;20707;-64
2022/12/23 04:59:21;;;;;;;79.88;35.97;;;;;;;2.85;100.00;101345.34;2107051;28;20204;-66
2022/12/23 05:00:22;;;;;;;87.83;38.03;;;;;;;2.82;100.00;101345.28;2112445;27;20186;-66
2022/12/23 05:01:22;;;;;;;83.00;38.60;;;;;;;2.79;100.00;101340.53;2107727;28;20449;-70
2022/12/23 05:02:22;;;;;;;80.67;37.53;;;;;;;2.79;100.00;101348.72;2111317;28;20636;-68
2022/12/23 05:03:23;;;;;;;80.33;39.50;;;;;;;2.77;100.00;101349.09;2110893;28;20195;-68
2022/12/23 05:04:23;;;;;;;79.53;36.17;;;;;;;2.65;100.00;101330.09;2110765;28;20178;-65
2022/12/23 05:05:24;;;;;;;71.73;36.20;;;;;;;2.79;100.00;101343.25;2112975;28;20203;-65
2022/12/23 05:06:24;;;;;;;73.10;36.37;;;;;;;2.77;100.00;101345.56;2111466;28;20195;-63
2022/12/23 05:07:25;;;;;;;79.13;38.63;;;;;;;2.76;100.00;101346.69;2111293;28;20284;-62
2022/12/23 05:08:25;;;;;;;72.37;37.83;;;;;;;2.79;100.00;101354.22;2111886;28;20563;-63
2022/12/23 05:09:26;;;;;;;82.53;38.67;;;;;;;2.82;100.00;101357.00;2111213;28;20540;-63
2022/12/23 05:10:26;;;;;;;77.77;37.63;;;;;;;2.70;100.00;101335.28;2111190;28;20181;-65
2022/12/23 05:11:27;;;;;;;72.47;35.87;;;;;;;2.44;100.00;101290.59;2112649;28;20208;-65
2022/12/23 05:12:28;;;;;;;75.83;37.53;;;;;;;2.82;100.00;101342.53;2111801;28;20676;-62
2022/12/23 05:13:29;;;;;;;79.43;36.45;;;;;;;2.87;100.00;101345.00;2111265;28;20287;-65
2022/12/23 05:14:29;;;;;;;75.90;36.90;;;;;;;2.87;100.00;101345.75;2111206;28;20186;-65
2022/12/23 05:15:31;;;;;;;77.23;35.53;;;;;;;2.81;100.00;101335.47;2110267;28;20194;-64
2022/12/23 05:16:32;;;;;;;77.78;40.92;;;;;;;2.87;100.00;101345.75;2111103;28;20218;-62
2022/12/23 05:17:33;;;;;;;76.55;37.40;;;;;;;2.88;100.00;101349.31;2105436;28;20202;-62
2022/12/23 05:18:33;;;;;;;80.07;37.40;;;;;;;2.86;100.00;101354.31;2094008;28;20191;-63
2022/12/23 05:19:34;;;;;;;78.10;39.80;;;;;;;2.85;100.00;101345.34;2108155;28;20193;-62
2022/12/23 05:20:34;;;;;;;76.23;39.60;;;;;;;2.39;100.00;101282.66;2109457;28;20229;-62
2022/12/23 05:21:35;;;;;;;79.10;38.73;;;;;;;2.79;100.00;101349.53;2116182;27;20492;-63